Time;durP1;ratioP1;P1;durP2;ratioP2;P2;SDS_P1;SDS_P2;PMS_P1;PMS_P2;Temp;Humidity;BMP_temperature;BMP_pressure;BME280_temperature;BME280_humidity;BME280_pressure;Samples;Min_cycle;Max_cycle;Signal;HPM_P1;HPM_P2
2022/05/23 00:01:38;;;;;;;1.70;1.60;;;21.50;61.30;;;;;;5092057;27;20970;-49
2022/05/23 00:04:17;;;;;;;1.35;1.25;;;21.50;61.30;;;;;;5116298;27;1202807;-48
2022/05/23 00:06:59;;;;;;;1.50;1.40;;;21.50;61.30;;;;;;5068339;27;20568;-47
2022/05/23 00:09:40;;;;;;;1.47;1.37;;;21.50;61.30;;;;;;5120386;27;20517;-50
2022/05/23 00:12:22;;;;;;;2.43;2.00;;;21.60;61.30;;;;;;5084118;27;20541;-48
2022/05/23 00:15:08;;;;;;;1.83;1.37;;;21.50;61.30;;;;;;5120744;27;20524;-48
2022/05/23 00:17:49;;;;;;;1.90;1.70;;;21.50;61.10;;;;;;5092837;27;20627;-67
2022/05/23 00:20:30;;;;;;;1.40;1.30;;;21.50;61.10;;;;;;5122340;27;20517;-49
2022/05/23 00:23:10;;;;;;;2.00;1.73;;;21.50;61.10;;;;;;5075804;27;20734;-47
2022/05/23 00:25:50;;;;;;;1.97;1.23;;;21.50;61.00;;;;;;5078662;27;20523;-49
2022/05/23 00:28:31;;;;;;;1.47;1.20;;;21.50;61.10;;;;;;5081552;27;20545;-49
2022/05/23 00:31:11;;;;;;;1.43;1.27;;;21.50;61.10;;;;;;5089042;28;20519;-67
2022/05/23 00:36:50;;;;;;;1.50;1.40;;;21.50;61.10;;;;;;5073058;27;20598;-49
2022/05/23 00:39:31;;;;;;;1.30;1.20;;;21.50;61.10;;;;;;5080678;28;20573;-49
2022/05/23 00:45:17;;;;;;;1.53;1.37;;;21.50;61.10;;;;;;5100138;27;20518;-49
2022/05/23 00:47:58;;;;;;;1.70;1.60;;;21.50;61.00;;;;;;5087171;27;21073;-49
2022/05/23 00:50:44;;;;;;;1.20;1.10;;;21.50;61.10;;;;;;5080941;27;21025;-50
2022/05/23 00:53:28;;;;;;;1.33;1.23;;;21.50;61.10;;;;;;5070470;27;20548;-49
2022/05/23 00:56:10;;;;;;;1.50;1.30;;;21.50;61.00;;;;;;5080926;28;20503;-47
2022/05/23 00:58:52;;;;;;;1.63;1.20;;;21.50;61.10;;;;;;5121247;27;20520;-49
2022/05/23 01:01:37;;;;;;;1.80;1.30;;;21.50;61.00;;;;;;5079062;28;20518;-49
2022/05/23 01:04:17;;;;;;;1.60;1.50;;;21.50;61.10;;;;;;5079724;28;20770;-49
2022/05/23 01:07:01;;;;;;;1.50;1.40;;;21.50;61.10;;;;;;5114869;27;20599;-48
2022/05/23 01:09:41;;;;;;;1.60;1.50;;;21.50;61.10;;;;;;5143985;27;1191031;-47
2022/05/23 01:12:21;;;;;;;1.50;1.40;;;21.50;61.20;;;;;;5071827;28;21208;-49
2022/05/23 01:15:05;;;;;;;1.47;1.37;;;21.50;61.20;;;;;;5129938;27;20690;-73
2022/05/23 01:17:46;;;;;;;1.97;1.53;;;21.50;61.10;;;;;;5086236;27;21098;-51
2022/05/23 01:20:28;;;;;;;1.73;1.63;;;21.50;61.10;;;;;;5122236;27;20566;-50
2022/05/23 01:23:17;;;;;;;1.73;1.63;;;21.50;61.10;;;;;;5077121;27;20537;-47
2022/05/23 01:26:22;;;;;;;1.60;1.50;;;21.50;61.10;;;;;;5080395;28;20578;-49
2022/05/23 01:29:12;;;;;;;1.83;1.73;;;21.50;61.10;;;;;;5079829;28;20570;-49
2022/05/23 01:32:01;;;;;;;1.50;1.40;;;21.50;61.30;;;;;;5075734;28;20536;-46
2022/05/23 01:34:48;;;;;;;1.67;1.50;;;21.50;61.30;;;;;;5121367;27;20550;-48
2022/05/23 01:37:30;;;;;;;1.60;1.50;;;21.50;61.20;;;;;;5049548;28;20555;-49
2022/05/23 01:40:23;;;;;;;1.20;1.10;;;21.50;61.10;;;;;;5081347;27;20512;-48
2022/05/23 01:43:15;;;;;;;1.73;1.63;;;21.50;61.10;;;;;;5065106;27;20536;-51
2022/05/23 01:45:58;;;;;;;1.57;1.47;;;21.50;61.20;;;;;;5080092;28;21031;-47
2022/05/23 01:48:57;;;;;;;1.70;1.60;;;21.50;61.40;;;;;;5080587;28;20519;-48
2022/05/23 01:51:39;;;;;;;1.50;1.40;;;21.50;61.20;;;;;;5118392;27;21119;-49
2022/05/23 01:54:23;;;;;;;1.87;1.77;;;21.50;61.30;;;;;;5120934;27;21516;-50
2022/05/23 01:57:06;;;;;;;1.70;1.60;;;21.50;61.40;;;;;;5108895;27;1218157;-48
2022/05/23 02:02:56;;;;;;;2.10;1.73;;;21.40;61.30;;;;;;5090839;27;21060;-48
2022/05/23 02:05:37;;;;;;;1.60;1.50;;;21.40;61.30;;;;;;5106441;27;20560;-49
2022/05/23 02:08:20;;;;;;;2.33;1.50;;;21.40;61.20;;;;;;5048877;28;21145;-47
2022/05/23 02:11:00;;;;;;;1.67;1.50;;;21.40;61.30;;;;;;5088077;27;20569;-49
2022/05/23 02:13:46;;;;;;;1.73;1.63;;;21.40;61.40;;;;;;5068218;27;20545;-49
2022/05/23 02:16:40;;;;;;;1.90;1.70;;;21.40;61.40;;;;;;5123987;27;20529;-48
2022/05/23 02:19:21;;;;;;;1.57;1.37;;;21.40;61.40;;;;;;5128018;27;20570;-50
2022/05/23 02:22:10;;;;;;;1.77;1.60;;;21.40;61.40;;;;;;5109004;27;20541;-47
2022/05/23 02:24:50;;;;;;;2.00;1.90;;;21.40;61.50;;;;;;5126943;27;20570;-48
2022/05/23 02:27:31;;;;;;;1.60;1.50;;;21.40;61.40;;;;;;5063985;28;20546;-49
2022/05/23 02:30:12;;;;;;;1.70;1.60;;;21.40;61.50;;;;;;5128379;27;20578;-48
2022/05/23 02:32:53;;;;;;;1.43;1.33;;;21.40;61.50;;;;;;5082201;27;21056;-49
2022/05/23 02:35:34;;;;;;;1.60;1.50;;;21.40;61.60;;;;;;5127487;27;20509;-48
2022/05/23 02:38:14;;;;;;;2.00;1.80;;;21.40;61.50;;;;;;5040183;28;20970;-48
2022/05/23 02:40:54;;;;;;;2.00;1.60;;;21.40;61.50;;;;;;5087826;28;20515;-48
2022/05/23 02:43:37;;;;;;;1.97;1.77;;;21.40;61.60;;;;;;5068534;27;20583;-50
2022/05/23 02:46:18;;;;;;;1.43;1.30;;;21.40;61.50;;;;;;5085526;28;21073;-72
2022/05/23 02:49:03;;;;;;;1.40;1.30;;;21.40;61.60;;;;;;5107872;27;20566;-48
2022/05/23 02:51:44;;;;;;;1.73;1.63;;;21.40;61.60;;;;;;5119554;27;21044;-47
2022/05/23 02:54:25;;;;;;;1.97;1.77;;;21.40;61.50;;;;;;5086253;28;20508;-50
2022/05/23 02:57:12;;;;;;;3.13;1.77;;;21.30;61.40;;;;;;5064263;28;20535;-49
2022/05/23 02:59:53;;;;;;;1.97;1.43;;;21.40;61.50;;;;;;5087940;28;20511;-48
2022/05/23 03:05:42;;;;;;;2.00;1.70;;;21.30;61.50;;;;;;5080096;28;20551;-46
2022/05/23 03:08:24;;;;;;;1.80;1.70;;;21.30;61.50;;;;;;5045966;28;20545;-49
2022/05/23 03:11:08;;;;;;;1.57;1.47;;;21.30;61.60;;;;;;5081068;28;20523;-48
2022/05/23 03:13:49;;;;;;;2.13;1.73;;;21.30;61.50;;;;;;5061354;27;20591;-48
2022/05/23 03:16:33;;;;;;;1.70;1.60;;;21.30;61.50;;;;;;5120760;27;20532;-48
2022/05/23 03:19:18;;;;;;;1.70;1.60;;;21.30;61.70;;;;;;5082019;27;20569;-49
2022/05/23 03:28:01;;;;;;;1.73;1.63;;;21.30;61.60;;;;;;5054682;27;20554;-48
2022/05/23 03:30:44;;;;;;;1.63;1.53;;;21.30;61.70;;;;;;5081659;28;20609;-50
2022/05/23 03:33:25;;;;;;;1.50;1.40;;;21.30;61.60;;;;;;5064877;27;20537;-48
2022/05/23 03:36:08;;;;;;;1.93;1.83;;;21.30;61.60;;;;;;5078929;28;20517;-46
2022/05/23 03:38:50;;;;;;;1.50;1.40;;;21.30;61.70;;;;;;5042044;27;20543;-48
2022/05/23 03:41:31;;;;;;;2.03;1.83;;;21.30;61.60;;;;;;5075284;27;20520;-48
2022/05/23 03:44:13;;;;;;;2.00;1.90;;;21.30;61.70;;;;;;5184506;27;20506;-48
2022/05/23 03:46:55;;;;;;;2.03;1.93;;;21.30;61.70;;;;;;5073336;27;20542;-50
2022/05/23 03:49:37;;;;;;;2.17;1.97;;;21.20;61.60;;;;;;5121882;27;20518;-49
2022/05/23 03:52:20;;;;;;;1.63;1.53;;;21.30;61.70;;;;;;5094555;27;20566;-48
2022/05/23 03:55:02;;;;;;;2.03;1.70;;;21.30;61.70;;;;;;5080073;28;20524;-50
2022/05/23 03:57:43;;;;;;;1.90;1.30;;;21.20;61.50;;;;;;5120988;27;20667;-46
2022/05/23 04:00:25;;;;;;;3.63;1.87;;;21.20;61.60;;;;;;5081678;27;21128;-48
2022/05/23 04:03:09;;;;;;;2.40;1.67;;;21.20;61.60;;;;;;5078386;27;20644;-50
2022/05/23 04:05:50;;;;;;;1.77;1.67;;;21.20;61.70;;;;;;5101004;27;20902;-48
2022/05/23 04:08:38;;;;;;;1.50;1.40;;;21.20;61.70;;;;;;5062784;27;20574;-48
2022/05/23 04:11:23;;;;;;;2.10;1.90;;;21.20;61.70;;;;;;5081992;27;20552;-50
2022/05/23 04:14:13;;;;;;;1.50;1.40;;;21.20;61.80;;;;;;5081244;27;20602;-50
2022/05/23 04:16:56;;;;;;;2.10;2.00;;;21.20;61.70;;;;;;5069353;28;20545;-47
2022/05/23 04:19:38;;;;;;;2.43;2.23;;;21.20;61.50;;;;;;5143902;27;20669;-47
2022/05/23 04:22:37;;;;;;;2.00;1.90;;;21.20;61.60;;;;;;5093748;27;20933;-47
2022/05/23 04:25:26;;;;;;;2.10;1.90;;;21.20;61.70;;;;;;5081012;27;20581;-52
2022/05/23 04:28:08;;;;;;;1.83;1.70;;;21.20;61.60;;;;;;4977183;28;20613;-50
2022/05/23 04:30:55;;;;;;;2.27;1.93;;;21.20;61.70;;;;;;5055484;28;20279;-47
2022/05/23 04:36:42;;;;;;;2.03;1.93;;;21.10;61.60;;;;;;5157853;27;20555;-47
2022/05/23 04:39:24;;;;;;;2.20;2.00;;;21.10;61.60;;;;;;5081423;27;20606;-50
2022/05/23 04:42:06;;;;;;;2.90;2.00;;;21.10;61.60;;;;;;5072354;27;20550;-47
2022/05/23 04:44:47;;;;;;;2.17;1.97;;;21.10;61.80;;;;;;5080177;28;20526;-49
2022/05/23 04:50:32;;;;;;;3.93;2.20;;;21.10;61.80;;;;;;5082084;27;20598;-48
2022/05/23 04:53:19;;;;;;;2.07;1.90;;;21.10;61.90;;;;;;5086733;27;21145;-49
2022/05/23 04:56:25;;;;;;;1.87;1.77;;;21.10;61.90;;;;;;5076583;28;21077;-49
2022/05/23 04:59:18;;;;;;;2.17;1.93;;;21.10;61.80;;;;;;5101794;27;20547;-49
2022/05/23 05:02:01;;;;;;;2.47;2.10;;;21.10;61.80;;;;;;5098148;27;21062;-48
2022/05/23 05:04:45;;;;;;;2.70;2.43;;;21.10;61.80;;;;;;5100106;27;20509;-49
2022/05/23 05:07:27;;;;;;;2.30;1.70;;;21.10;61.80;;;;;;5106349;27;20547;-50
2022/05/23 05:10:12;;;;;;;2.27;1.60;;;21.10;61.80;;;;;;5122577;27;20541;-48
2022/05/23 05:12:54;;;;;;;2.60;2.17;;;21.10;61.70;;;;;;5069595;27;21003;-50
2022/05/23 05:15:37;;;;;;;2.33;2.17;;;21.10;61.90;;;;;;5081291;28;20515;-48
2022/05/23 05:18:26;;;;;;;2.30;1.90;;;21.10;61.80;;;;;;5044607;27;20575;-50
2022/05/23 05:21:26;;;;;;;2.30;2.07;;;21.10;61.90;;;;;;5082311;27;20516;-50
2022/05/23 05:24:19;;;;;;;1.70;1.60;;;21.10;61.80;;;;;;5079509;28;20519;-49
2022/05/23 05:27:24;;;;;;;3.90;2.07;;;21.10;61.80;;;;;;5055528;28;20566;-48
2022/05/23 05:30:12;;;;;;;2.00;1.90;;;21.10;61.90;;;;;;5104153;27;20610;-49
2022/05/23 05:33:01;;;;;;;2.13;1.97;;;21.10;61.80;;;;;;5086859;27;20544;-50
2022/05/23 05:36:30;;;;;;;2.07;1.97;;;21.10;61.80;;;;;;5081185;27;20548;-48
2022/05/23 05:40:10;;;;;;;2.23;1.97;;;21.10;61.80;;;;;;4165533;27;28446931;-51
2022/05/23 05:53:29;;;;;;;2.03;1.93;;;21.10;61.90;;;;;;5107250;27;21042;-49
2022/05/23 05:57:01;;;;;;;1.97;1.77;;;21.10;62.00;;;;;;5148165;27;20433;-48
2022/05/23 05:59:49;;;;;;;2.07;1.60;;;21.10;62.00;;;;;;5102523;27;20517;-48
2022/05/23 06:13:48;;;;;;;2.27;2.07;;;21.00;61.90;;;;;;4603232;27;15455931;-47
2022/05/23 06:17:45;;;;;;;2.03;1.83;;;21.00;62.10;;;;;;5086136;27;20587;-48
2022/05/23 06:25:25;;;;;;;2.10;1.93;;;21.00;61.80;;;;;;5087676;28;20471;-72
2022/05/23 06:28:47;;;;;;;2.03;1.93;;;21.00;61.90;;;;;;5068625;27;1706513;-50
2022/05/23 06:32:28;;;;;;;4.83;2.67;;;21.00;62.10;;;;;;5095629;27;20539;-47
2022/05/23 06:54:32;;;;;;;3.13;2.83;;;20.90;62.20;;;;;;5162924;27;20518;-47
2022/05/23 06:57:24;;;;;;;2.70;2.50;;;20.90;62.20;;;;;;5066873;27;20551;-48
2022/05/23 07:00:17;;;;;;;3.00;2.53;;;20.90;62.40;;;;;;5103184;27;20967;-48
2022/05/23 07:03:20;;;;;;;2.70;2.40;;;20.90;62.20;;;;;;5066355;27;20686;-48
2022/05/23 07:13:11;;;;;;;3.63;2.43;;;20.80;62.30;;;;;;5067540;28;20548;-48
2022/05/23 07:16:05;;;;;;;2.77;2.47;;;20.80;62.40;;;;;;5121252;27;20950;-48
2022/05/23 07:18:52;;;;;;;2.90;2.70;;;20.80;62.40;;;;;;5080321;27;20828;-48
2022/05/23 07:25:44;;;;;;;2.97;2.77;;;20.80;62.60;;;;;;5080381;28;20633;-48
2022/05/23 07:29:35;;;;;;;2.67;2.47;;;20.90;62.80;;;;;;5081624;28;20517;-49
2022/05/23 07:33:15;;;;;;;4.90;2.90;;;20.80;62.60;;;;;;4372958;27;21789025;-50
2022/05/23 07:51:03;;;;;;;5.70;2.63;;;20.80;62.60;;;;;;5122907;27;20546;-48
2022/05/23 08:11:46;;;;;;;2.50;2.30;;;20.90;63.50;;;;;;5116644;27;20536;-50
2022/05/23 08:14:50;;;;;;;2.50;2.30;;;20.80;63.20;;;;;;5122711;27;20613;-49
2022/05/23 08:17:50;;;;;;;2.43;2.23;;;20.80;63.20;;;;;;5092059;27;20550;-49
2022/05/23 08:20:51;;;;;;;2.13;1.70;;;20.80;63.30;;;;;;5123094;27;20871;-48
2022/05/23 08:23:39;;;;;;;2.27;2.07;;;20.80;63.30;;;;;;5010194;28;20366;-47
2022/05/23 08:26:29;;;;;;;2.53;2.33;;;20.80;63.20;;;;;;5119390;27;20536;-48
2022/05/23 08:29:15;;;;;;;2.43;2.23;;;20.80;63.50;;;;;;5077883;27;20616;-50
2022/05/23 08:32:16;;;;;;;3.07;2.80;;;20.80;63.40;;;;;;4280283;27;24638808;-49
2022/05/23 08:35:13;;;;;;;2.10;1.90;;;20.80;63.30;;;;;;5081760;28;20614;-49
2022/05/23 08:38:04;;;;;;;2.30;2.10;;;20.80;63.20;;;;;;5092127;27;20550;-48
2022/05/23 08:41:14;;;;;;;2.70;2.50;;;20.90;63.20;;;;;;5082241;27;20853;-47
2022/05/23 08:44:15;;;;;;;2.93;2.73;;;20.90;63.40;;;;;;5141921;27;21098;-47
2022/05/23 08:47:16;;;;;;;2.50;2.00;;;20.90;63.00;;;;;;5132552;27;20955;-48
2022/05/23 08:50:09;;;;;;;2.17;2.07;;;20.90;63.00;;;;;;5082146;28;20527;-48
2022/05/23 08:52:59;;;;;;;2.53;2.33;;;20.90;63.10;;;;;;5069500;28;21063;-47
2022/05/23 08:56:24;;;;;;;2.20;1.90;;;20.90;63.00;;;;;;5120865;27;21122;-47
2022/05/23 08:59:25;;;;;;;1.80;1.70;;;20.90;62.90;;;;;;5081646;27;20536;-46
2022/05/23 09:02:11;;;;;;;2.47;2.10;;;20.90;63.00;;;;;;5087850;27;20612;-48
2022/05/23 09:05:04;;;;;;;2.03;1.83;;;20.90;62.90;;;;;;5121497;27;21043;-48
2022/05/23 09:07:49;;;;;;;2.53;2.33;;;20.90;62.90;;;;;;5048568;28;20555;-48
2022/05/23 09:10:37;;;;;;;2.27;2.07;;;21.00;62.90;;;;;;5068196;28;20539;-49
2022/05/23 09:13:19;;;;;;;2.00;1.90;;;21.00;62.70;;;;;;5071784;27;20712;-47
2022/05/23 09:16:04;;;;;;;2.40;2.20;;;21.00;62.70;;;;;;5106381;27;20522;-48
2022/05/23 09:18:51;;;;;;;2.47;2.27;;;21.00;62.80;;;;;;5062276;27;20541;-48
2022/05/23 09:24:40;;;;;;;2.60;2.13;;;21.00;62.90;;;;;;5080624;27;20523;-49
2022/05/23 09:27:26;;;;;;;2.70;2.50;;;21.00;62.90;;;;;;5086616;27;20598;-49
2022/05/23 09:30:10;;;;;;;2.20;2.10;;;20.90;62.80;;;;;;5081441;28;20576;-49
2022/05/23 09:32:56;;;;;;;2.60;2.40;;;20.90;62.90;;;;;;5069713;27;20573;-48
2022/05/23 09:35:53;;;;;;;2.70;2.33;;;21.00;62.90;;;;;;5080438;27;20523;-49
2022/05/23 09:38:46;;;;;;;3.53;2.00;;;21.00;63.10;;;;;;5070954;27;21076;-48
2022/05/23 09:48:01;;;;;;;2.10;1.90;;;20.90;63.20;;;;;;5063919;27;20634;-48
2022/05/23 09:50:46;;;;;;;2.20;2.10;;;20.90;63.20;;;;;;5081100;28;20917;-50
2022/05/23 09:53:29;;;;;;;2.20;2.10;;;20.90;63.10;;;;;;5065463;27;20544;-49
2022/05/23 09:56:29;;;;;;;2.30;2.20;;;21.00;63.30;;;;;;5080665;28;20508;-47
2022/05/23 09:59:23;;;;;;;3.50;2.70;;;21.00;64.80;;;;;;5081906;27;20531;-48
2022/05/23 10:02:22;;;;;;;3.47;3.07;;;21.00;66.20;;;;;;5108595;27;20541;-49
2022/05/23 10:05:06;;;;;;;2.80;2.60;;;21.10;65.50;;;;;;5080634;27;20822;-48
2022/05/23 10:07:53;;;;;;;2.90;2.70;;;21.10;64.90;;;;;;5122166;27;20963;-49
2022/05/23 10:10:36;;;;;;;2.57;2.30;;;21.10;65.90;;;;;;5123257;27;20579;-48
2022/05/23 10:13:28;;;;;;;3.13;2.93;;;21.10;65.60;;;;;;5066698;27;20586;-48
2022/05/23 10:16:19;;;;;;;2.60;2.40;;;21.10;66.80;;;;;;5122547;27;20561;-50
2022/05/23 10:19:03;;;;;;;2.20;2.07;;;21.20;65.60;;;;;;5122109;27;21056;-47
2022/05/23 10:21:45;;;;;;;2.47;2.27;;;21.20;66.30;;;;;;5099898;27;20572;-48
2022/05/23 10:24:29;;;;;;;4.30;2.40;;;21.20;66.30;;;;;;5120043;27;20883;-47
2022/05/23 10:27:16;;;;;;;3.00;2.60;;;21.20;66.30;;;;;;5062545;28;20967;-49
2022/05/23 10:29:59;;;;;;;3.43;3.00;;;21.20;67.60;;;;;;5122494;27;21036;-49
2022/05/23 10:32:50;;;;;;;2.73;2.53;;;21.20;69.00;;;;;;5112220;27;20297;-45
2022/05/23 10:35:36;;;;;;;3.30;2.50;;;21.30;67.20;;;;;;4998209;28;20646;-50
2022/05/23 10:44:42;;;;;;;2.50;2.27;;;21.60;65.30;;;;;;5017430;28;20584;-48
2022/05/23 10:47:38;;;;;;;4.37;2.63;;;21.60;64.30;;;;;;5060311;27;20605;-48
2022/05/23 10:50:31;;;;;;;2.63;2.43;;;21.70;64.30;;;;;;5139636;27;20553;-47
2022/05/23 10:53:22;;;;;;;3.53;2.60;;;21.70;63.70;;;;;;5086910;27;21013;-47
2022/05/23 10:56:20;;;;;;;2.23;2.03;;;21.70;63.80;;;;;;5105067;27;20581;-50
2022/05/23 10:59:11;;;;;;;2.70;2.43;;;21.60;63.90;;;;;;5073251;27;20538;-48
2022/05/23 11:02:06;;;;;;;5.37;2.90;;;21.60;64.00;;;;;;5104782;27;20467;-51
2022/05/23 11:04:56;;;;;;;4.20;2.67;;;21.60;63.80;;;;;;5102155;27;20977;-49
2022/05/23 11:07:51;;;;;;;2.50;2.30;;;21.60;63.90;;;;;;5060696;27;20629;-50
2022/05/23 11:10:42;;;;;;;3.80;2.43;;;21.60;64.00;;;;;;5081667;27;20552;-49
2022/05/23 11:13:36;;;;;;;4.03;2.23;;;21.60;63.90;;;;;;5080901;27;1377970;-48
2022/05/23 11:16:28;;;;;;;3.90;2.77;;;21.60;64.20;;;;;;5131274;27;20296;-47
2022/05/23 11:19:25;;;;;;;2.60;2.13;;;21.60;64.80;;;;;;5122215;27;20901;-47
2022/05/23 11:22:15;;;;;;;2.90;2.70;;;21.60;65.40;;;;;;4992190;28;20563;-49
2022/05/23 11:25:11;;;;;;;7.10;3.40;;;21.60;65.10;;;;;;5143071;27;20265;-47
2022/05/23 11:34:18;;;;;;;3.70;2.70;;;21.80;64.20;;;;;;5100022;27;20538;-47
2022/05/23 11:41:05;;;;;;;3.13;2.87;;;21.80;66.80;;;;;;5126179;27;1779435;-46
2022/05/23 11:43:48;;;;;;;3.23;2.93;;;21.80;65.70;;;;;;5062082;27;20619;-45
2022/05/23 11:47:18;;;;;;;3.50;3.20;;;21.80;65.60;;;;;;5133252;27;20577;-48
2022/05/23 11:50:18;;;;;;;5.40;3.80;;;21.80;64.50;;;;;;5141723;27;20455;-47
2022/05/23 11:53:13;;;;;;;3.50;3.20;;;21.80;65.60;;;;;;5140429;27;21163;-49
2022/05/23 11:56:13;;;;;;;9.47;3.77;;;21.80;65.60;;;;;;5080667;27;20554;-49
2022/05/23 11:58:59;;;;;;;4.33;3.70;;;21.90;65.10;;;;;;5069475;27;21067;-47
2022/05/23 12:01:42;;;;;;;4.30;2.70;;;21.80;65.00;;;;;;5097877;27;20547;-48
2022/05/23 12:04:25;;;;;;;5.23;3.67;;;21.80;65.20;;;;;;5080149;28;21088;-49
2022/05/23 12:07:29;;;;;;;3.80;3.50;;;21.70;64.60;;;;;;5062429;27;20569;-48
2022/05/23 12:10:40;;;;;;;3.87;3.43;;;21.80;65.40;;;;;;5082213;27;20562;-47
2022/05/23 12:13:58;;;;;;;4.90;3.60;;;21.70;65.50;;;;;;5067222;27;20567;-48
2022/05/23 12:19:58;;;;;;;3.80;3.50;;;21.70;65.50;;;;;;5143994;27;20915;-47
2022/05/23 12:23:12;;;;;;;3.80;3.47;;;21.70;66.40;;;;;;5025801;27;20614;-48
2022/05/23 12:26:21;;;;;;;5.70;3.73;;;21.60;66.20;;;;;;5121131;27;20888;-46
2022/05/23 12:29:33;;;;;;;7.47;4.00;;;21.60;65.90;;;;;;5132770;27;20496;-49
2022/05/23 12:32:28;;;;;;;4.27;3.30;;;21.60;66.80;;;;;;5111858;27;20547;-48
2022/05/23 12:35:19;;;;;;;3.30;3.00;;;21.60;67.00;;;;;;5138469;27;20553;-46
2022/05/23 12:38:10;;;;;;;4.30;3.53;;;21.50;67.10;;;;;;5070446;27;20537;-46
2022/05/23 12:41:08;;;;;;;4.10;3.67;;;21.50;67.90;;;;;;5102250;27;20536;-47
2022/05/23 12:44:15;;;;;;;3.07;2.87;;;21.50;66.50;;;;;;5119580;27;20544;-49
2022/05/23 12:47:16;;;;;;;4.00;3.53;;;21.50;66.40;;;;;;5068243;27;20638;-49
2022/05/23 12:50:16;;;;;;;5.03;3.30;;;21.40;66.50;;;;;;5139832;27;20762;-48
2022/05/23 12:53:37;;;;;;;5.53;4.17;;;21.30;66.50;;;;;;5104347;27;20530;-48
2022/05/23 12:56:36;;;;;;;6.17;3.50;;;21.30;66.60;;;;;;5098080;27;21140;-47
2022/05/23 12:59:50;;;;;;;4.70;3.93;;;21.30;66.90;;;;;;5085769;27;20652;-47
2022/05/23 13:02:38;;;;;;;5.13;3.90;;;21.30;67.00;;;;;;5057329;27;20620;-50
2022/05/23 13:05:24;;;;;;;4.80;4.10;;;21.20;66.80;;;;;;5080530;28;20550;-48
2022/05/23 13:08:15;;;;;;;4.73;3.60;;;21.20;67.00;;;;;;5094003;27;20553;-47
2022/05/23 13:11:03;;;;;;;4.37;3.97;;;21.20;67.20;;;;;;5079211;27;20526;-47
2022/05/23 13:13:49;;;;;;;9.50;4.10;;;21.20;67.30;;;;;;5043595;27;20550;-48
2022/05/23 13:16:32;;;;;;;5.00;3.73;;;21.20;67.40;;;;;;5081036;27;20626;-48
2022/05/23 13:22:20;;;;;;;6.63;4.20;;;21.20;67.40;;;;;;5045870;28;20538;-47
2022/05/23 13:25:02;;;;;;;5.30;3.50;;;21.20;67.60;;;;;;5080025;27;20644;-49
2022/05/23 13:27:50;;;;;;;3.97;3.40;;;21.20;67.70;;;;;;5079375;27;20677;-51
2022/05/23 13:30:35;;;;;;;3.87;3.53;;;21.10;67.50;;;;;;5120417;27;20513;-50
2022/05/23 13:33:17;;;;;;;4.03;3.20;;;21.10;67.50;;;;;;5045304;28;21092;-49
2022/05/23 13:35:59;;;;;;;4.57;3.27;;;21.10;67.50;;;;;;5126798;27;1337608;-49
2022/05/23 13:38:43;;;;;;;6.00;3.93;;;21.10;67.60;;;;;;5045651;27;20606;-46
2022/05/23 13:41:28;;;;;;;3.57;3.27;;;21.10;67.80;;;;;;5119160;27;20501;-47
2022/05/23 13:44:19;;;;;;;4.30;3.87;;;21.10;67.80;;;;;;5117807;27;20538;-46
2022/05/23 13:47:04;;;;;;;4.23;3.17;;;21.10;68.30;;;;;;5073723;27;20534;-49
2022/05/23 13:49:49;;;;;;;4.30;3.70;;;21.10;67.90;;;;;;5082162;28;20887;-49
2022/05/23 13:52:36;;;;;;;5.97;3.10;;;21.10;67.80;;;;;;5110080;27;20546;-74
2022/05/23 13:55:22;;;;;;;3.63;3.33;;;21.10;67.90;;;;;;5079580;28;20645;-47
2022/05/23 13:58:08;;;;;;;3.57;3.27;;;21.10;67.80;;;;;;5086240;27;20588;-48
2022/05/23 14:00:54;;;;;;;4.20;3.37;;;21.10;67.80;;;;;;5163028;27;20941;-48
2022/05/23 14:03:41;;;;;;;3.10;2.80;;;21.10;68.00;;;;;;5145537;27;20547;-50
2022/05/23 14:06:26;;;;;;;3.57;3.27;;;21.20;67.90;;;;;;5073326;28;21133;-49
2022/05/23 14:09:09;;;;;;;4.57;3.73;;;21.20;67.90;;;;;;5080538;27;20654;-48
2022/05/23 14:11:53;;;;;;;4.87;3.33;;;21.10;67.70;;;;;;5114261;27;21091;-50
2022/05/23 14:14:39;;;;;;;3.77;3.43;;;21.20;68.20;;;;;;5121194;27;20565;-50
2022/05/23 14:17:28;;;;;;;4.23;3.33;;;21.20;68.20;;;;;;5157073;27;20576;-49
2022/05/23 14:20:21;;;;;;;3.73;3.13;;;21.20;68.60;;;;;;5077819;27;20942;-47
2022/05/23 14:23:08;;;;;;;3.20;2.90;;;21.20;68.60;;;;;;5077319;27;20596;-49
2022/05/23 14:26:06;;;;;;;3.70;3.13;;;21.20;68.40;;;;;;5079688;28;20610;-50
2022/05/23 14:28:53;;;;;;;4.10;3.40;;;21.20;68.40;;;;;;5057502;27;20603;-49
2022/05/23 14:31:48;;;;;;;6.07;2.93;;;21.20;68.40;;;;;;5120973;27;21108;-50
2022/05/23 14:34:31;;;;;;;3.30;2.93;;;21.20;68.60;;;;;;5081543;27;20606;-48
2022/05/23 14:37:12;;;;;;;4.23;3.17;;;21.20;68.40;;;;;;5070756;27;20546;-48
2022/05/23 14:39:58;;;;;;;5.03;3.10;;;21.20;68.40;;;;;;5082061;27;20520;-48
2022/05/23 14:42:49;;;;;;;5.23;3.47;;;21.20;68.80;;;;;;5106205;27;20641;-48
2022/05/23 14:45:32;;;;;;;4.10;2.67;;;21.20;68.90;;;;;;5123035;27;20939;-47
2022/05/23 14:48:23;;;;;;;4.37;3.20;;;21.20;68.90;;;;;;5093286;27;20567;-48
2022/05/23 14:51:14;;;;;;;3.50;2.73;;;21.20;70.00;;;;;;5080816;28;20567;-48
2022/05/23 14:57:05;;;;;;;4.20;3.30;;;21.20;68.90;;;;;;5126769;27;20579;-48
2022/05/23 15:02:48;;;;;;;4.57;3.27;;;21.20;69.00;;;;;;5083852;27;20596;-48
2022/05/23 15:05:29;;;;;;;4.10;3.23;;;21.20;68.90;;;;;;5120055;27;20926;-48
2022/05/23 15:08:11;;;;;;;2.93;2.70;;;21.20;69.00;;;;;;5061248;27;20571;-50
2022/05/23 15:10:54;;;;;;;2.90;2.60;;;21.20;69.00;;;;;;5101672;27;20986;-47
2022/05/23 15:13:38;;;;;;;3.00;2.70;;;21.20;69.60;;;;;;5047088;28;20575;-48
2022/05/23 15:16:24;;;;;;;4.10;3.07;;;21.20;70.10;;;;;;5080171;28;21046;-48
2022/05/23 15:19:17;;;;;;;3.10;2.80;;;21.20;70.10;;;;;;5081316;27;20505;-50
2022/05/23 15:21:59;;;;;;;3.90;2.93;;;21.20;70.90;;;;;;5093277;27;20540;-47
2022/05/23 15:24:40;;;;;;;2.90;2.53;;;21.20;71.00;;;;;;5080213;27;20554;-48
2022/05/23 15:27:26;;;;;;;3.50;3.20;;;21.20;70.60;;;;;;5062683;28;21161;-47
2022/05/23 15:30:10;;;;;;;2.80;2.60;;;21.20;71.00;;;;;;5121986;27;20522;-49
2022/05/23 15:32:52;;;;;;;3.53;3.00;;;21.20;70.60;;;;;;5067112;27;20680;-47
2022/05/23 15:35:34;;;;;;;4.53;3.30;;;21.20;70.70;;;;;;5133464;27;20522;-55
2022/05/23 15:38:15;;;;;;;3.13;2.83;;;21.20;71.00;;;;;;5062762;27;20675;-51
2022/05/23 15:40:57;;;;;;;3.63;3.17;;;21.20;71.30;;;;;;5122690;27;20644;-48
2022/05/23 15:43:38;;;;;;;3.10;2.87;;;21.20;71.40;;;;;;5138434;27;20921;-48
2022/05/23 15:46:22;;;;;;;3.30;3.03;;;21.20;71.30;;;;;;5121157;27;20535;-47
2022/05/23 15:49:05;;;;;;;2.90;2.70;;;21.20;71.10;;;;;;5089606;28;20503;-74
2022/05/23 15:51:45;;;;;;;3.30;2.80;;;21.20;71.50;;;;;;5096965;27;20588;-47
2022/05/23 15:54:25;;;;;;;2.60;2.40;;;21.20;72.30;;;;;;5079967;28;20515;-47
2022/05/23 15:57:07;;;;;;;3.43;2.70;;;21.20;72.50;;;;;;5111576;27;20542;-49
2022/05/23 15:59:48;;;;;;;2.50;2.30;;;21.20;73.20;;;;;;5081640;28;20515;-47
2022/05/23 16:02:30;;;;;;;3.47;3.17;;;21.20;72.90;;;;;;5073592;27;20533;-48
2022/05/23 16:05:13;;;;;;;5.90;3.20;;;21.20;73.20;;;;;;5079392;28;20597;-48
2022/05/23 16:07:54;;;;;;;3.47;3.17;;;21.20;73.10;;;;;;5053082;27;20601;-48
2022/05/23 16:10:36;;;;;;;2.60;2.40;;;21.20;73.40;;;;;;5080627;28;20560;-47
2022/05/23 16:13:18;;;;;;;3.07;2.77;;;21.20;73.70;;;;;;5041657;27;21007;-49
2022/05/23 16:16:00;;;;;;;3.00;2.70;;;21.20;74.70;;;;;;5080226;27;20515;-47
2022/05/23 16:18:41;;;;;;;3.17;2.87;;;21.20;73.50;;;;;;5067263;27;20579;-47
2022/05/23 16:21:24;;;;;;;3.33;3.03;;;21.20;73.70;;;;;;5116023;27;20530;-49
2022/05/23 16:24:07;;;;;;;2.83;2.63;;;21.20;73.90;;;;;;5078655;28;20579;-47
2022/05/23 16:26:48;;;;;;;3.40;2.80;;;21.20;73.60;;;;;;5078864;27;20520;-50
2022/05/23 16:29:29;;;;;;;2.90;2.57;;;21.20;73.40;;;;;;5106152;27;20541;-49
2022/05/23 16:36:35;;;;;;;3.20;2.90;;;21.20;74.10;;;;;;5105438;27;21426;-50
2022/05/23 16:38:09;;;;;;;4.53;2.60;;;21.20;74.30;;;;;;5085190;27;21372;-48
2022/05/23 16:40:51;;;;;;;2.80;2.60;;;21.20;73.90;;;;;;5081382;27;20554;-49
2022/05/23 16:43:33;;;;;;;3.50;3.00;;;21.20;73.80;;;;;;5026859;28;20987;-47
2022/05/23 16:46:14;;;;;;;2.70;2.50;;;21.20;73.70;;;;;;5081642;27;20624;-49
2022/05/23 16:48:57;;;;;;;2.60;2.40;;;21.20;73.60;;;;;;5061002;27;20541;-46
2022/05/23 16:51:38;;;;;;;2.90;2.60;;;21.20;73.50;;;;;;5119505;27;20528;-48
2022/05/23 16:54:18;;;;;;;3.15;2.85;;;21.20;73.70;;;;;;5145158;27;1194208;-49
2022/05/23 16:56:59;;;;;;;3.10;2.90;;;21.20;73.80;;;;;;5089077;27;20530;-47
2022/05/23 16:59:40;;;;;;;4.27;3.20;;;21.20;73.40;;;;;;5121585;27;20569;-49
2022/05/23 17:02:24;;;;;;;3.50;3.20;;;21.30;74.30;;;;;;5101795;27;20765;-47
2022/05/23 17:05:06;;;;;;;3.33;3.03;;;21.30;73.70;;;;;;5120383;27;20522;-47
2022/05/23 17:07:50;;;;;;;3.37;3.07;;;21.30;73.60;;;;;;5051622;28;20554;-48
2022/05/23 17:10:31;;;;;;;3.23;2.63;;;21.20;73.20;;;;;;5080747;27;20656;-47
2022/05/23 17:13:13;;;;;;;3.43;3.13;;;21.20;73.20;;;;;;5084265;27;21033;-48